createdAt,value
2023-01-07T00:01:51.426Z,9.44
2023-01-07T00:06:54.555Z,9.64
2023-01-07T00:11:56.608Z,9.21
2023-01-07T00:16:58.685Z,9.32
2023-01-07T00:22:00.805Z,9.49
2023-01-07T00:27:02.990Z,9.25
2023-01-07T00:32:05.346Z,9.38
2023-01-07T00:37:26.331Z,9.43
2023-01-07T00:42:47.253Z,9.40
2023-01-07T00:47:53.491Z,9.26
2023-01-07T00:52:56.375Z,9.18
2023-01-07T00:57:58.815Z,9.43
2023-01-07T01:03:01.673Z,9.36
2023-01-07T01:08:04.021Z,9.54
2023-01-07T01:13:06.223Z,9.15
2023-01-07T01:18:08.379Z,9.24
2023-01-07T01:23:10.600Z,9.45
2023-01-07T01:28:12.913Z,9.27
2023-01-07T01:33:15.581Z,9.25
2023-01-07T01:38:18.511Z,9.67
2023-01-07T01:43:30.000Z,9.62
2023-01-07T01:48:34.155Z,9.56
2023-01-07T01:53:36.698Z,9.50
2023-01-07T01:59:00.243Z,9.39
2023-01-07T02:04:10.412Z,9.54
2023-01-07T02:09:13.444Z,9.48
2023-01-07T02:14:44.575Z,9.66
2023-01-07T02:20:34.693Z,9.60
2023-01-07T02:26:05.833Z,9.36
2023-01-07T02:31:22.750Z,9.20
2023-01-07T02:36:39.739Z,9.43
2023-01-07T02:41:56.886Z,9.14
2023-01-07T02:47:17.463Z,9.27
2023-01-07T02:52:28.284Z,9.67
2023-01-07T02:58:07.977Z,9.20
2023-01-07T03:03:13.317Z,9.32
2023-01-07T03:08:29.290Z,9.02
2023-01-07T03:13:43.056Z,9.19
2023-01-07T03:18:56.602Z,9.15
2023-01-07T03:23:58.823Z,9.11
2023-01-07T03:29:02.170Z,9.24
2023-01-07T03:34:09.415Z,9.40
2023-01-07T03:39:12.598Z,9.20
2023-01-07T03:44:15.850Z,9.34
2023-01-07T03:49:18.177Z,9.10
2023-01-07T03:54:21.594Z,9.11
2023-01-07T03:59:23.789Z,9.20
2023-01-07T04:04:26.077Z,9.00
2023-01-07T04:09:28.619Z,9.11
2023-01-07T04:14:31.305Z,9.16
2023-01-07T04:19:34.701Z,9.03
2023-01-07T04:24:37.001Z,9.26
2023-01-07T04:29:39.599Z,9.28
2023-01-07T04:34:42.357Z,9.00
2023-01-07T04:39:45.029Z,8.99
2023-01-07T04:44:48.027Z,8.95
2023-01-07T04:49:50.292Z,8.96
2023-01-07T04:54:53.085Z,8.77
2023-01-07T04:59:55.505Z,8.50
2023-01-07T05:04:57.870Z,8.87
2023-01-07T05:10:01.192Z,8.77
2023-01-07T05:15:06.682Z,9.02
2023-01-07T05:20:11.752Z,9.02
2023-01-07T05:25:15.082Z,8.97
2023-01-07T05:30:17.532Z,8.89
2023-01-07T05:35:20.758Z,8.62
2023-01-07T05:40:22.993Z,8.85
2023-01-07T05:45:25.246Z,8.71
2023-01-07T05:50:27.514Z,8.81
2023-01-07T05:55:29.669Z,8.76
2023-01-07T06:00:31.964Z,8.53
2023-01-07T06:05:34.077Z,8.94
2023-01-07T06:10:36.512Z,8.53
2023-01-07T06:15:38.724Z,8.66
2023-01-07T06:20:41.856Z,8.81
2023-01-07T06:25:43.899Z,8.70
2023-01-07T06:30:46.864Z,8.71
2023-01-07T06:35:49.015Z,8.54
2023-01-07T06:40:51.318Z,8.75
2023-01-07T06:45:54.081Z,8.74
2023-01-07T06:50:56.442Z,8.83
2023-01-07T06:55:58.574Z,8.61
2023-01-07T07:01:06.083Z,8.93
2023-01-07T07:06:08.294Z,8.93
2023-01-07T07:11:10.473Z,8.89
2023-01-07T07:16:12.609Z,9.00
2023-01-07T07:21:14.729Z,9.04
2023-01-07T07:26:17.111Z,8.80
2023-01-07T07:31:19.195Z,8.86
2023-01-07T07:36:21.251Z,8.82
2023-01-07T07:41:23.933Z,9.02
2023-01-07T07:46:26.047Z,9.15
2023-01-07T07:51:28.833Z,9.10
2023-01-07T07:56:30.893Z,8.58
2023-01-07T08:01:33.936Z,9.01
2023-01-07T08:06:37.389Z,8.75
2023-01-07T08:11:39.525Z,8.89
2023-01-07T08:16:41.758Z,8.95
2023-01-07T08:21:43.863Z,8.92
2023-01-07T08:26:45.943Z,8.81
2023-01-07T08:31:48.110Z,8.84
2023-01-07T08:36:50.745Z,8.58
2023-01-07T08:41:52.814Z,8.89
2023-01-07T08:46:55.124Z,8.94
2023-01-07T08:51:57.464Z,9.14
2023-01-07T08:56:59.620Z,9.55
2023-01-07T09:02:01.888Z,9.41
2023-01-07T09:07:04.051Z,9.34
2023-01-07T09:12:10.026Z,9.80
2023-01-07T09:17:13.197Z,9.63
2023-01-07T09:22:15.692Z,9.97
2023-01-07T09:27:18.141Z,9.65
2023-01-07T09:32:21.404Z,9.90
2023-01-07T09:37:23.712Z,9.67
2023-01-07T09:42:43.350Z,9.60
2023-01-07T09:47:48.257Z,9.45
2023-01-07T09:52:52.485Z,9.17
2023-01-07T09:57:54.945Z,9.27
2023-01-07T10:03:41.755Z,9.74
2023-01-07T10:08:56.079Z,9.46
2023-01-07T10:14:03.183Z,9.71
2023-01-07T10:19:22.530Z,9.48
2023-01-07T10:24:32.314Z,9.02
2023-01-07T10:29:36.630Z,9.70
2023-01-07T10:34:45.021Z,9.46
2023-01-07T10:40:13.199Z,9.66
2023-01-07T10:45:25.264Z,9.74
2023-01-07T10:50:33.467Z,9.92
2023-01-07T10:55:52.144Z,9.97
2023-01-07T11:00:54.426Z,9.99
2023-01-07T11:06:00.138Z,10.01
2023-01-07T11:11:03.793Z,9.86
2023-01-07T11:16:26.549Z,9.79
2023-01-07T11:21:42.879Z,9.26
2023-01-07T11:26:46.637Z,10.14
2023-01-07T11:31:53.269Z,9.96
2023-01-07T11:36:55.668Z,9.43
2023-01-07T11:42:23.562Z,10.09
2023-01-07T11:47:25.803Z,9.81
2023-01-07T11:52:28.342Z,10.27
2023-01-07T11:57:30.541Z,9.72
2023-01-07T12:02:32.998Z,9.93
2023-01-07T12:07:35.376Z,9.86
2023-01-07T12:12:43.172Z,10.36
2023-01-07T12:17:50.848Z,9.98
2023-01-07T12:23:13.011Z,9.90
2023-01-07T12:28:18.146Z,9.78
2023-01-07T12:33:31.242Z,9.58
2023-01-07T12:38:51.898Z,9.83
2023-01-07T12:44:00.014Z,9.82
2023-01-07T12:49:36.315Z,10.07
2023-01-07T12:55:17.540Z,10.00
2023-01-07T13:00:25.169Z,9.56
2023-01-07T13:05:37.796Z,9.49
2023-01-07T13:10:42.426Z,9.47
2023-01-07T13:15:44.681Z,9.42
2023-01-07T13:21:12.448Z,9.94
2023-01-07T13:26:27.013Z,9.95
2023-01-07T13:31:53.704Z,9.37
2023-01-07T13:37:11.353Z,9.96
2023-01-07T13:42:25.201Z,9.93
2023-01-07T13:47:43.050Z,9.75
2023-01-07T13:52:55.802Z,9.19
2023-01-07T13:57:58.250Z,9.49
2023-01-07T14:03:01.371Z,9.56
2023-01-07T14:08:04.095Z,8.92
2023-01-07T14:13:35.585Z,9.43
2023-01-07T14:19:03.645Z,9.11
2023-01-07T14:24:33.860Z,9.48
2023-01-07T14:29:42.253Z,9.23
2023-01-07T14:34:54.193Z,9.45
2023-01-07T14:39:57.068Z,9.31
2023-01-07T14:45:01.421Z,9.04
2023-01-07T14:50:28.740Z,9.17
2023-01-07T14:55:37.466Z,9.54
2023-01-07T15:01:04.638Z,9.06
2023-01-07T15:06:26.659Z,9.30
2023-01-07T15:11:49.067Z,9.18
2023-01-07T15:16:52.090Z,9.02
2023-01-07T15:21:54.459Z,9.08
2023-01-07T15:27:12.291Z,8.98
2023-01-07T15:32:41.996Z,8.93
2023-01-07T15:38:05.222Z,8.75
2023-01-07T15:43:22.569Z,8.68
2023-01-07T15:48:24.843Z,8.96
2023-01-07T15:53:29.150Z,8.58
2023-01-07T15:58:48.827Z,8.62
2023-01-07T16:03:56.057Z,8.80
2023-01-07T16:08:58.715Z,8.50
2023-01-07T16:14:02.712Z,8.15
2023-01-07T16:19:04.881Z,8.44
2023-01-07T16:24:07.596Z,8.44
2023-01-07T16:29:20.134Z,8.40
2023-01-07T16:34:25.215Z,8.59
2023-01-07T16:39:29.723Z,8.32
2023-01-07T16:44:49.445Z,8.51
2023-01-07T16:50:11.207Z,8.20
2023-01-07T16:55:45.870Z,8.31
2023-01-07T17:00:49.339Z,8.15
2023-01-07T17:06:06.606Z,8.18
2023-01-07T17:11:20.518Z,8.43
2023-01-07T17:16:28.013Z,8.26
2023-01-07T17:21:41.127Z,8.34
2023-01-07T17:26:43.508Z,7.87
2023-01-07T17:31:46.645Z,8.04
2023-01-07T17:36:48.990Z,8.13
2023-01-07T17:42:09.716Z,8.30
2023-01-07T17:47:14.056Z,8.42
2023-01-07T17:52:17.138Z,8.31
2023-01-07T17:57:19.658Z,8.04
2023-01-07T18:02:26.172Z,7.95
2023-01-07T18:07:28.390Z,7.82
2023-01-07T18:12:30.488Z,8.23
2023-01-07T18:17:33.859Z,8.81
2023-01-07T18:22:36.000Z,8.69
2023-01-07T18:27:38.348Z,8.75
2023-01-07T18:32:40.644Z,8.34
2023-01-07T18:37:43.182Z,8.72
2023-01-07T18:42:45.655Z,8.79
2023-01-07T18:47:47.862Z,8.41
2023-01-07T18:52:50.197Z,8.85
2023-01-07T18:57:52.487Z,8.88
2023-01-07T19:02:54.771Z,8.77
2023-01-07T19:07:57.323Z,8.99
2023-01-07T19:12:59.470Z,8.98
2023-01-07T19:18:01.548Z,9.16
2023-01-07T19:23:03.661Z,8.39
2023-01-07T19:28:05.994Z,8.44
2023-01-07T19:33:08.415Z,8.53
2023-01-07T19:38:12.764Z,8.32
2023-01-07T19:43:14.799Z,8.70
2023-01-07T19:48:16.884Z,8.59
2023-01-07T19:53:19.182Z,8.70
2023-01-07T19:58:21.624Z,8.50
2023-01-07T20:03:23.807Z,8.47
2023-01-07T20:08:26.148Z,8.47
2023-01-07T20:13:29.850Z,8.62
2023-01-07T20:18:35.880Z,8.46
2023-01-07T20:23:39.519Z,8.61
2023-01-07T20:28:42.836Z,8.45
2023-01-07T20:33:45.465Z,8.46
2023-01-07T20:38:48.149Z,8.69
2023-01-07T20:44:01.098Z,8.87
2023-01-07T20:49:03.407Z,8.69
2023-01-07T20:54:05.729Z,8.72
2023-01-07T20:59:08.772Z,8.56
2023-01-07T21:04:12.288Z,8.55
2023-01-07T21:09:15.317Z,8.58
2023-01-07T21:14:17.597Z,8.85
2023-01-07T21:19:21.036Z,8.54
2023-01-07T21:24:23.353Z,8.73
2023-01-07T21:29:25.599Z,8.40
2023-01-07T21:34:27.699Z,8.36
2023-01-07T21:39:30.005Z,8.55
2023-01-07T21:44:33.769Z,8.50
2023-01-07T21:49:35.962Z,8.34
2023-01-07T21:54:38.500Z,8.26
2023-01-07T21:59:40.840Z,8.39
2023-01-07T22:04:43.409Z,8.94
2023-01-07T22:09:45.916Z,9.20
2023-01-07T22:14:48.254Z,8.06
2023-01-07T22:19:50.424Z,9.34
2023-01-07T22:24:52.751Z,8.98
2023-01-07T22:29:56.068Z,8.85
2023-01-07T22:34:58.206Z,8.70
2023-01-07T22:40:02.479Z,9.08
2023-01-07T22:45:17.239Z,8.45
2023-01-07T22:50:19.557Z,8.98
2023-01-07T22:55:21.918Z,8.66
2023-01-07T23:00:52.385Z,8.87
2023-01-07T23:05:54.524Z,9.11
2023-01-07T23:10:56.679Z,8.93
2023-01-07T23:16:03.350Z,8.77
2023-01-07T23:21:05.932Z,8.73
2023-01-07T23:26:08.427Z,8.68
2023-01-07T23:31:11.296Z,8.93
2023-01-07T23:36:13.850Z,9.01
2023-01-07T23:41:16.159Z,8.76
2023-01-07T23:46:18.342Z,8.83
2023-01-07T23:51:21.453Z,9.26
2023-01-07T23:56:23.741Z,9.13
